createdAt,value
2022-11-13T00:00:41.746Z,89.83
2022-11-13T00:01:41.685Z,89.93
2022-11-13T00:02:41.612Z,89.93
2022-11-13T00:03:41.608Z,89.51
2022-11-13T00:04:41.464Z,90.34
2022-11-13T00:05:41.462Z,90.03
2022-11-13T00:06:41.476Z,90.14
2022-11-13T00:07:41.385Z,90.03
2022-11-13T00:08:41.516Z,90.03
2022-11-13T00:09:41.573Z,90.24
2022-11-13T00:10:41.575Z,90.34
2022-11-13T00:11:41.270Z,90.14
2022-11-13T00:13:51.593Z,90.97
2022-11-13T00:14:51.561Z,91.28
2022-11-13T00:15:51.462Z,91.28
2022-11-13T00:16:51.405Z,90.14
2022-11-13T00:17:51.449Z,89.93
2022-11-13T00:18:51.432Z,89.93
2022-11-13T00:19:51.409Z,90.34
2022-11-13T00:20:51.395Z,90.14
2022-11-13T00:21:51.370Z,90.34
2022-11-13T00:22:51.377Z,90.14
2022-11-13T00:23:51.380Z,90.24
2022-11-13T00:24:51.306Z,90.45
2022-11-13T00:25:51.338Z,90.28
2022-11-13T00:26:51.305Z,90.14
2022-11-13T00:27:51.379Z,90.14
2022-11-13T00:28:51.313Z,90.34
2022-11-13T00:29:51.334Z,90.14
2022-11-13T00:30:51.432Z,89.55
2022-11-13T00:31:51.309Z,89.86
2022-11-13T00:32:51.286Z,89.20
2022-11-13T00:34:33.130Z,89.45
2022-11-13T00:34:52.235Z,89.97
2022-11-13T00:35:51.349Z,89.45
2022-11-13T00:36:51.187Z,90.08
2022-11-13T00:37:51.162Z,90.08
2022-11-13T00:38:51.163Z,89.97
2022-11-13T00:39:54.521Z,89.23
2022-11-13T00:40:52.144Z,89.34
2022-11-13T00:41:51.201Z,89.65
2022-11-13T00:42:51.103Z,89.34
2022-11-13T00:43:51.105Z,89.86
2022-11-13T00:44:51.097Z,90.08
2022-11-13T00:45:51.109Z,90.08
2022-11-13T00:46:51.181Z,89.97
2022-11-13T00:47:51.045Z,90.18
2022-11-13T00:48:51.092Z,90.08
2022-11-13T00:49:51.029Z,89.86
2022-11-13T00:50:51.013Z,90.28
2022-11-13T00:51:51.006Z,89.97
2022-11-13T00:52:51.016Z,89.97
2022-11-13T00:53:51.004Z,89.97
2022-11-13T00:54:50.986Z,89.86
2022-11-13T00:55:50.957Z,90.18
2022-11-13T00:56:50.948Z,89.45
2022-11-13T00:57:50.956Z,89.97
2022-11-13T00:58:50.937Z,89.45
2022-11-13T00:59:50.914Z,90.39
2022-11-13T01:00:50.911Z,89.55
2022-11-13T01:01:50.905Z,89.97
2022-11-13T01:02:51.010Z,90.08
2022-11-13T01:03:50.874Z,89.76
2022-11-13T01:04:50.894Z,89.65
2022-11-13T01:05:50.847Z,89.65
2022-11-13T01:06:50.944Z,89.34
2022-11-13T01:07:50.843Z,89.76
2022-11-13T01:08:50.815Z,89.76
2022-11-13T01:09:50.801Z,89.34
2022-11-13T01:10:53.639Z,89.86
2022-11-13T01:11:50.778Z,89.76
2022-11-13T01:12:50.792Z,89.65
2022-11-13T01:13:50.759Z,89.55
2022-11-13T01:14:50.751Z,89.86
2022-11-13T01:15:50.736Z,89.55
2022-11-13T01:16:50.738Z,89.34
2022-11-13T01:17:50.717Z,89.03
2022-11-13T01:18:50.837Z,88.82
2022-11-13T01:19:50.691Z,89.28
2022-11-13T01:20:50.680Z,89.03
2022-11-13T01:21:50.669Z,89.03
2022-11-13T01:22:50.678Z,89.48
2022-11-13T01:23:50.664Z,89.90
2022-11-13T01:24:50.638Z,89.86
2022-11-13T01:25:50.646Z,89.76
2022-11-13T01:26:50.614Z,89.80
2022-11-13T01:27:50.610Z,89.38
2022-11-13T01:28:50.630Z,89.59
2022-11-13T01:29:50.581Z,89.59
2022-11-13T01:30:50.571Z,89.23
2022-11-13T01:31:50.557Z,89.48
2022-11-13T01:32:50.545Z,89.48
2022-11-13T01:33:50.561Z,89.90
2022-11-13T01:34:50.635Z,89.80
2022-11-13T01:35:50.532Z,89.97
2022-11-13T01:36:50.507Z,89.80
2022-11-13T01:37:50.493Z,89.80
2022-11-13T01:38:50.502Z,89.80
2022-11-13T01:39:50.472Z,89.34
2022-11-13T01:40:50.494Z,89.38
2022-11-13T01:41:50.445Z,89.28
2022-11-13T01:42:50.457Z,89.38
2022-11-13T01:43:50.461Z,89.48
2022-11-13T01:44:50.413Z,88.96
2022-11-13T01:45:50.402Z,89.38
2022-11-13T01:46:50.411Z,89.28
2022-11-13T01:47:52.180Z,89.17
2022-11-13T01:48:50.372Z,88.96
2022-11-13T01:49:50.360Z,89.07
2022-11-13T01:50:50.392Z,89.38
2022-11-13T01:51:50.358Z,89.38
2022-11-13T01:52:50.386Z,89.28
2022-11-13T01:53:50.317Z,88.96
2022-11-13T01:54:50.304Z,89.17
2022-11-13T01:55:50.293Z,88.96
2022-11-13T01:56:50.304Z,89.38
2022-11-13T01:57:50.269Z,89.59
2022-11-13T01:58:50.275Z,89.38
2022-11-13T01:59:50.247Z,88.86
2022-11-13T02:00:50.242Z,88.86
2022-11-13T02:01:50.322Z,88.75
2022-11-13T02:02:50.215Z,89.17
2022-11-13T02:03:50.210Z,89.17
2022-11-13T02:04:50.208Z,89.07
2022-11-13T02:05:50.247Z,89.48
2022-11-13T02:06:50.346Z,89.00
2022-11-13T02:07:50.178Z,89.07
2022-11-13T02:08:50.150Z,89.28
2022-11-13T02:09:50.156Z,89.07
2022-11-13T02:10:50.143Z,88.65
2022-11-13T02:11:50.115Z,89.07
2022-11-13T02:12:50.109Z,89.07
2022-11-13T02:13:50.113Z,89.28
2022-11-13T02:14:50.083Z,88.75
2022-11-13T02:15:50.069Z,89.28
2022-11-13T02:16:50.073Z,89.07
2022-11-13T02:17:50.070Z,89.28
2022-11-13T02:18:50.037Z,89.11
2022-11-13T02:19:50.043Z,89.28
2022-11-13T02:20:50.018Z,89.17
2022-11-13T02:21:50.004Z,88.96
2022-11-13T02:22:50.104Z,88.37
2022-11-13T02:23:49.983Z,87.96
2022-11-13T02:24:54.718Z,88.59
2022-11-13T02:25:50.962Z,89.22
2022-11-13T02:26:49.948Z,88.54
2022-11-13T02:27:49.938Z,89.11
2022-11-13T02:28:49.951Z,89.22
2022-11-13T02:29:49.941Z,88.75
2022-11-13T02:30:49.910Z,88.79
2022-11-13T02:31:49.895Z,88.37
2022-11-13T02:32:49.883Z,87.85
2022-11-13T02:33:49.868Z,87.96
2022-11-13T02:34:49.914Z,87.43
2022-11-13T02:35:49.847Z,87.43
2022-11-13T02:36:49.838Z,87.96
2022-11-13T02:37:49.831Z,87.96
2022-11-13T02:38:49.930Z,88.37
2022-11-13T02:39:49.804Z,88.48
2022-11-13T02:40:49.826Z,88.27
2022-11-13T02:41:49.781Z,88.37
2022-11-13T02:42:49.774Z,88.17
2022-11-13T02:43:49.761Z,88.27
2022-11-13T02:44:49.774Z,88.27
2022-11-13T02:45:49.755Z,88.06
2022-11-13T02:46:49.743Z,87.64
2022-11-13T02:47:49.716Z,87.33
2022-11-13T02:48:49.725Z,87.33
2022-11-13T02:49:49.708Z,87.33
2022-11-13T02:50:49.679Z,87.43
2022-11-13T02:51:49.674Z,87.33
2022-11-13T02:52:49.714Z,88.06
2022-11-13T02:53:49.677Z,87.64
2022-11-13T02:54:49.761Z,87.96
2022-11-13T02:55:49.642Z,87.23
2022-11-13T02:56:49.633Z,87.54
2022-11-13T02:57:49.606Z,87.64
2022-11-13T02:58:49.608Z,87.85
2022-11-13T02:59:49.591Z,87.85
2022-11-13T03:00:49.593Z,87.89
2022-11-13T03:01:49.789Z,87.68
2022-11-13T03:02:49.548Z,87.54
2022-11-13T03:03:57.343Z,87.96
2022-11-13T03:05:11.535Z,88.06
2022-11-13T03:05:50.536Z,87.74
2022-11-13T03:06:49.532Z,87.99
2022-11-13T03:07:49.498Z,87.99
2022-11-13T03:08:49.482Z,87.99
2022-11-13T03:09:49.491Z,87.54
2022-11-13T03:10:49.571Z,87.79
2022-11-13T03:11:49.476Z,87.79
2022-11-13T03:12:49.440Z,87.64
2022-11-13T03:13:49.427Z,87.89
2022-11-13T03:14:49.434Z,87.68
2022-11-13T03:15:49.405Z,87.68
2022-11-13T03:16:49.415Z,87.64
2022-11-13T03:17:49.403Z,87.68
2022-11-13T03:18:49.407Z,86.95
2022-11-13T03:19:49.360Z,87.26
2022-11-13T03:20:49.351Z,87.58
2022-11-13T03:21:49.356Z,87.79
2022-11-13T03:22:49.368Z,87.99
2022-11-13T03:23:49.320Z,87.89
2022-11-13T03:24:50.500Z,87.89
2022-11-13T03:25:49.294Z,87.58
2022-11-13T03:26:49.393Z,87.99
2022-11-13T03:27:49.293Z,87.99
2022-11-13T03:28:49.279Z,87.99
2022-11-13T03:29:49.252Z,87.99
2022-11-13T03:30:49.236Z,87.79
2022-11-13T03:31:49.248Z,87.99
2022-11-13T03:32:49.216Z,87.99
2022-11-13T03:33:49.206Z,87.89
2022-11-13T03:34:49.211Z,87.89
2022-11-13T03:35:49.613Z,87.68
2022-11-13T03:36:49.192Z,87.79
2022-11-13T03:37:49.161Z,86.85
2022-11-13T03:38:49.149Z,87.16
2022-11-13T03:39:49.162Z,87.58
2022-11-13T03:40:49.155Z,87.58
2022-11-13T03:41:49.119Z,88.21
2022-11-13T03:42:49.221Z,87.89
2022-11-13T03:43:49.099Z,87.99
2022-11-13T03:44:49.108Z,87.68
2022-11-13T03:45:49.077Z,87.79
2022-11-13T03:46:49.081Z,87.79
2022-11-13T03:47:49.084Z,87.68
2022-11-13T03:48:49.054Z,87.89
2022-11-13T03:49:49.052Z,87.99
2022-11-13T03:50:49.016Z,88.04
2022-11-13T03:51:49.006Z,88.42
2022-11-13T03:52:49.011Z,88.31
2022-11-13T03:53:48.981Z,88.31
2022-11-13T03:54:48.998Z,88.52
2022-11-13T03:55:48.985Z,88.04
2022-11-13T03:56:48.949Z,87.83
2022-11-13T03:57:48.940Z,87.51
2022-11-13T03:58:49.764Z,87.41
2022-11-13T03:59:48.917Z,88.04
2022-11-13T04:00:48.933Z,88.56
2022-11-13T04:01:48.965Z,88.56
2022-11-13T04:02:48.884Z,88.04
2022-11-13T04:03:48.878Z,88.04
2022-11-13T04:04:48.885Z,87.58
2022-11-13T04:05:48.857Z,87.62
2022-11-13T04:06:48.927Z,87.83
2022-11-13T04:07:48.852Z,87.62
2022-11-13T04:08:48.816Z,87.97
2022-11-13T04:09:48.806Z,87.93
2022-11-13T04:10:48.825Z,88.04
2022-11-13T04:11:48.780Z,88.46
2022-11-13T04:12:48.796Z,88.04
2022-11-13T04:13:48.784Z,87.62
2022-11-13T04:14:48.865Z,87.93
2022-11-13T04:15:48.747Z,87.66
2022-11-13T04:16:48.739Z,87.83
2022-11-13T04:17:48.721Z,87.66
2022-11-13T04:18:48.728Z,88.07
2022-11-13T04:19:48.719Z,88.07
2022-11-13T04:20:48.686Z,88.49
2022-11-13T04:21:48.681Z,88.60
2022-11-13T04:22:48.699Z,88.04
2022-11-13T04:23:48.650Z,88.07
2022-11-13T04:24:48.658Z,87.93
2022-11-13T04:25:48.629Z,88.49
2022-11-13T04:26:48.626Z,88.60
2022-11-13T04:27:48.623Z,88.39
2022-11-13T04:28:48.609Z,88.46
2022-11-13T04:29:48.609Z,88.49
2022-11-13T04:30:48.705Z,88.35
2022-11-13T04:31:48.563Z,88.60
2022-11-13T04:32:48.550Z,88.39
2022-11-13T04:33:48.540Z,88.49
2022-11-13T04:34:48.542Z,88.39
2022-11-13T04:35:48.584Z,88.29
2022-11-13T04:36:48.506Z,88.39
2022-11-13T04:37:48.497Z,88.35
2022-11-13T04:38:48.483Z,88.35
2022-11-13T04:39:48.472Z,88.35
2022-11-13T04:40:48.516Z,88.39
2022-11-13T04:41:54.018Z,88.35
2022-11-13T04:42:49.446Z,88.49
2022-11-13T04:43:48.433Z,88.46
2022-11-13T04:44:48.418Z,88.24
2022-11-13T04:45:48.407Z,88.49
2022-11-13T04:46:48.528Z,88.29
2022-11-13T04:47:48.386Z,89.19
2022-11-13T04:48:48.380Z,89.29
2022-11-13T04:49:48.363Z,89.40
2022-11-13T04:50:48.355Z,89.65
2022-11-13T04:51:48.367Z,88.81
2022-11-13T04:52:48.394Z,89.12
2022-11-13T04:53:48.319Z,88.77
2022-11-13T04:54:48.306Z,89.29
2022-11-13T04:55:48.296Z,89.54
2022-11-13T04:56:48.284Z,89.34
2022-11-13T04:57:48.400Z,89.29
2022-11-13T04:58:48.299Z,89.34
2022-11-13T04:59:48.252Z,89.40
2022-11-13T05:00:48.241Z,89.61
2022-11-13T05:01:48.287Z,89.54
2022-11-13T05:02:48.327Z,89.61
2022-11-13T05:03:48.231Z,89.61
2022-11-13T05:04:48.215Z,89.54
2022-11-13T05:05:49.641Z,89.65
2022-11-13T05:06:48.246Z,89.72
2022-11-13T05:07:48.167Z,89.50
2022-11-13T05:08:48.179Z,89.29
2022-11-13T05:09:48.166Z,89.82
2022-11-13T05:10:48.143Z,89.65
2022-11-13T05:11:48.118Z,89.97
2022-11-13T05:12:48.107Z,89.97
2022-11-13T05:13:48.097Z,90.17
2022-11-13T05:14:48.110Z,89.97
2022-11-13T05:15:48.085Z,89.92
2022-11-13T05:16:48.063Z,89.82
2022-11-13T05:17:55.924Z,89.97
2022-11-13T05:18:48.177Z,90.07
2022-11-13T05:19:48.159Z,89.50
2022-11-13T05:20:48.069Z,90.49
2022-11-13T05:21:48.053Z,90.38
2022-11-13T05:22:48.102Z,89.92
2022-11-13T05:23:48.048Z,90.59
2022-11-13T05:24:48.128Z,90.17
2022-11-13T05:25:47.983Z,90.59
2022-11-13T05:26:47.967Z,89.72
2022-11-13T05:27:47.954Z,90.28
2022-11-13T05:28:47.948Z,90.49
2022-11-13T05:29:47.919Z,90.55
2022-11-13T05:30:47.931Z,90.70
2022-11-13T05:31:47.894Z,90.17
2022-11-13T05:32:47.884Z,90.23
2022-11-13T05:33:48.006Z,90.55
2022-11-13T05:34:47.883Z,90.80
2022-11-13T05:35:47.874Z,90.38
2022-11-13T05:36:47.838Z,90.38
2022-11-13T05:37:47.828Z,90.76
2022-11-13T05:38:47.820Z,90.80
2022-11-13T05:39:47.826Z,90.45
2022-11-13T05:40:47.820Z,90.70
2022-11-13T05:41:47.799Z,90.70
2022-11-13T05:42:47.771Z,90.55
2022-11-13T05:43:47.777Z,90.34
2022-11-13T05:44:47.768Z,90.59
2022-11-13T05:45:47.739Z,90.70
2022-11-13T05:46:47.729Z,90.38
2022-11-13T05:47:47.744Z,90.17
2022-11-13T05:48:47.706Z,90.70
2022-11-13T05:49:47.830Z,90.70
2022-11-13T05:50:47.683Z,91.50
2022-11-13T05:51:47.692Z,91.18
2022-11-13T05:52:47.681Z,91.33
2022-11-13T05:53:47.676Z,91.18
2022-11-13T05:54:47.641Z,91.12
2022-11-13T05:55:47.631Z,91.18
2022-11-13T05:56:47.640Z,91.22
2022-11-13T05:57:47.608Z,91.08
2022-11-13T05:58:47.599Z,91.18
2022-11-13T05:59:47.603Z,91.33
2022-11-13T06:00:47.573Z,91.12
2022-11-13T06:01:47.616Z,91.28
2022-11-13T06:02:47.555Z,91.12
2022-11-13T06:03:47.543Z,91.28
2022-11-13T06:04:47.529Z,91.43
2022-11-13T06:05:47.649Z,91.01
2022-11-13T06:06:47.576Z,91.33
2022-11-13T06:09:08.844Z,91.28
2022-11-13T06:10:08.489Z,91.43
2022-11-13T06:11:08.494Z,91.43
2022-11-13T06:12:08.123Z,91.12
2022-11-13T06:13:08.111Z,91.43
2022-11-13T06:14:08.250Z,91.12
2022-11-13T06:15:08.167Z,91.33
2022-11-13T06:16:08.015Z,91.33
2022-11-13T06:17:08.096Z,91.22
2022-11-13T06:18:08.180Z,91.43
2022-11-13T06:19:08.077Z,91.22
2022-11-13T06:20:08.098Z,91.12
2022-11-13T06:21:08.045Z,91.22
2022-11-13T06:22:08.095Z,91.01
2022-11-13T06:23:07.994Z,91.43
2022-11-13T06:24:08.145Z,91.43
2022-11-13T06:25:07.972Z,91.22
2022-11-13T06:26:08.110Z,91.43
2022-11-13T06:27:08.032Z,91.22
2022-11-13T06:28:07.936Z,91.43
2022-11-13T06:29:07.997Z,91.43
2022-11-13T06:30:07.824Z,91.22
2022-11-13T06:31:07.839Z,90.91
2022-11-13T06:32:07.864Z,90.70
2022-11-13T06:33:07.957Z,90.70
2022-11-13T06:34:07.974Z,91.12
2022-11-13T06:35:08.081Z,91.22
2022-11-13T06:36:07.815Z,90.91
2022-11-13T06:37:07.878Z,90.91
2022-11-13T06:38:07.855Z,91.01
2022-11-13T06:39:07.862Z,91.75
2022-11-13T06:40:07.783Z,91.60
2022-11-13T06:41:07.850Z,91.50
2022-11-13T06:42:07.783Z,91.33
2022-11-13T06:43:07.737Z,91.43
2022-11-13T06:44:07.737Z,91.75
2022-11-13T06:45:07.645Z,91.50
2022-11-13T06:46:07.785Z,91.43
2022-11-13T06:47:07.744Z,91.50
2022-11-13T06:48:07.812Z,91.22
2022-11-13T06:49:08.017Z,91.91
2022-11-13T06:50:07.790Z,92.13
2022-11-13T06:51:07.701Z,91.75
2022-11-13T06:52:07.940Z,91.91
2022-11-13T06:53:07.860Z,91.91
2022-11-13T06:54:07.656Z,91.81
2022-11-13T06:55:07.556Z,92.13
2022-11-13T06:56:07.499Z,92.13
2022-11-13T06:57:07.580Z,92.13
2022-11-13T06:58:07.589Z,92.02
2022-11-13T06:59:08.549Z,92.19
2022-11-13T07:00:07.578Z,91.98
2022-11-13T07:01:07.694Z,92.23
2022-11-13T07:02:07.526Z,92.61
2022-11-13T07:03:07.478Z,92.92
2022-11-13T07:04:07.409Z,92.61
2022-11-13T07:05:07.621Z,92.82
2022-11-13T07:06:07.493Z,92.40
2022-11-13T07:07:07.602Z,92.61
2022-11-13T07:08:07.411Z,92.71
2022-11-13T07:09:07.508Z,92.71
2022-11-13T07:10:07.440Z,92.71
2022-11-13T07:11:07.477Z,92.50
2022-11-13T07:12:07.392Z,92.71
2022-11-13T07:13:07.357Z,92.92
2022-11-13T07:14:07.479Z,93.08
2022-11-13T07:15:07.379Z,93.08
2022-11-13T07:16:16.202Z,93.93
2022-11-13T07:17:10.071Z,93.40
2022-11-13T07:18:07.214Z,93.82
2022-11-13T07:19:07.898Z,94.20
2022-11-13T07:20:07.212Z,94.51
2022-11-13T07:21:07.183Z,95.51
2022-11-13T07:22:07.194Z,96.83
2022-11-13T07:23:07.162Z,96.20
2022-11-13T07:24:07.145Z,97.52
2022-11-13T07:25:07.421Z,97.58
2022-11-13T07:26:07.648Z,96.22
2022-11-13T07:27:07.416Z,96.26
2022-11-13T07:28:07.334Z,95.64
2022-11-13T07:29:07.236Z,95.11
2022-11-13T07:30:17.057Z,95.32
2022-11-13T07:31:07.239Z,95.32
2022-11-13T07:32:07.206Z,94.80
2022-11-13T07:33:07.265Z,95.43
2022-11-13T07:34:07.188Z,95.53
2022-11-13T07:35:07.093Z,95.84
2022-11-13T07:36:07.038Z,95.64
2022-11-13T07:37:07.041Z,95.64
2022-11-13T07:38:07.059Z,95.84
2022-11-13T07:39:07.094Z,95.64
2022-11-13T07:40:06.996Z,95.53
2022-11-13T07:41:07.089Z,95.32
2022-11-13T07:42:07.000Z,95.43
2022-11-13T08:38:14.829Z,76.15
2022-11-13T08:39:14.853Z,74.77
2022-11-13T08:40:14.767Z,74.98
2022-11-13T08:41:14.759Z,74.88
2022-11-13T08:42:14.703Z,74.67
2022-11-13T08:43:14.638Z,74.98
2022-11-13T08:44:14.674Z,74.88
2022-11-13T08:45:14.746Z,75.60
2022-11-13T08:46:14.756Z,76.63
2022-11-13T08:47:14.733Z,76.15
2022-11-13T08:48:14.806Z,76.35
2022-11-13T08:49:14.685Z,76.98
2022-11-13T08:50:14.641Z,77.35
2022-11-13T08:51:14.542Z,77.28
2022-11-13T08:52:14.551Z,76.11
2022-11-13T08:53:14.614Z,76.32
2022-11-13T08:54:14.717Z,76.93
2022-11-13T08:55:14.486Z,78.14
2022-11-13T08:56:14.469Z,76.56
2022-11-13T08:57:14.486Z,76.73
2022-11-13T08:58:14.448Z,75.67
2022-11-13T08:59:14.431Z,76.07
2022-11-13T09:00:14.460Z,75.63
2022-11-13T09:01:14.412Z,75.59
2022-11-13T09:02:14.396Z,74.53
2022-11-13T09:03:14.422Z,74.32
2022-11-13T09:04:14.451Z,74.43
2022-11-13T09:05:14.475Z,74.63
2022-11-13T09:06:14.381Z,75.18
2022-11-13T09:07:14.433Z,74.63
2022-11-13T09:09:30.708Z,74.57
2022-11-13T09:10:30.711Z,76.10
2022-11-13T09:11:30.640Z,76.00
2022-11-13T09:12:30.681Z,75.93
2022-11-13T09:13:30.576Z,75.83
2022-11-13T09:14:30.674Z,76.45
2022-11-13T09:15:30.511Z,76.55
2022-11-13T09:16:30.513Z,77.99
2022-11-13T09:17:30.447Z,77.17
2022-11-13T09:18:30.926Z,76.97
2022-11-13T09:19:30.452Z,75.70
2022-11-13T09:20:30.510Z,74.43
2022-11-13T09:21:30.454Z,73.57
2022-11-13T09:22:30.388Z,73.81
2022-11-13T09:23:37.914Z,74.19
2022-11-13T09:24:30.366Z,73.88
2022-11-13T09:25:35.965Z,74.60
2022-11-13T09:26:31.357Z,74.46
2022-11-13T09:27:30.406Z,74.70
2022-11-13T09:28:30.659Z,73.13
2022-11-13T09:30:46.504Z,72.92
2022-11-13T09:33:31.083Z,72.41
2022-11-13T09:34:39.381Z,72.20
2022-11-13T09:35:30.681Z,71.80
2022-11-13T09:36:33.306Z,71.80
2022-11-13T09:37:30.530Z,71.69
2022-11-13T09:38:30.801Z,70.53
2022-11-13T09:39:30.487Z,71.15
2022-11-13T09:40:30.546Z,69.57
2022-11-13T09:41:30.573Z,69.47
2022-11-13T09:42:30.449Z,68.01
2022-11-13T09:43:30.418Z,67.90
2022-11-13T09:44:30.456Z,67.05
2022-11-13T09:45:30.438Z,65.49
2022-11-13T09:46:30.420Z,65.46
2022-11-13T09:47:30.458Z,64.74
2022-11-13T09:48:30.716Z,63.41
2022-11-13T09:49:30.454Z,64.71
2022-11-13T09:50:30.404Z,64.71
2022-11-13T09:51:30.387Z,65.36
2022-11-13T09:52:30.330Z,65.33
2022-11-13T09:53:30.305Z,65.84
2022-11-13T09:54:30.385Z,65.84
2022-11-13T09:55:30.382Z,66.14
2022-11-13T09:56:30.278Z,65.73
2022-11-13T09:57:30.470Z,65.43
2022-11-13T09:59:40.841Z,63.22
2022-11-13T10:00:40.827Z,63.83
2022-11-13T10:01:40.775Z,63.83
2022-11-13T10:02:40.793Z,64.45
2022-11-13T10:04:53.122Z,62.81
2022-11-13T10:05:41.092Z,62.99
2022-11-13T10:06:41.031Z,63.73
2022-11-13T10:07:40.903Z,65.37
2022-11-13T10:08:40.858Z,65.88
2022-11-13T10:09:40.786Z,65.77
2022-11-13T10:10:40.747Z,64.24
2022-11-13T10:11:40.693Z,64.68
2022-11-13T10:12:40.760Z,65.19
2022-11-13T10:13:40.647Z,64.24
2022-11-13T10:14:41.000Z,65.77
2022-11-13T10:15:40.869Z,64.55
2022-11-13T10:16:40.849Z,64.55
2022-11-13T10:19:26.637Z,62.99
2022-11-13T10:21:42.076Z,61.94
2022-11-13T10:22:42.050Z,62.11
2022-11-13T10:23:42.012Z,61.27
2022-11-13T10:24:41.992Z,62.08
2022-11-13T10:25:41.979Z,63.03
2022-11-13T10:26:42.007Z,62.73
2022-11-13T10:27:42.068Z,61.80
2022-11-13T10:28:51.034Z,61.68
2022-11-13T10:29:47.735Z,62.18
2022-11-13T10:30:42.926Z,61.47
2022-11-13T10:31:41.944Z,60.76
2022-11-13T10:32:41.928Z,63.00
2022-11-13T10:33:41.893Z,64.43
2022-11-13T10:34:41.877Z,65.14
2022-11-13T10:35:41.868Z,64.76
2022-11-13T10:36:41.907Z,64.87
2022-11-13T10:37:41.864Z,62.93
2022-11-13T10:38:41.835Z,63.13
2022-11-13T10:39:41.822Z,64.94
2022-11-13T10:40:41.814Z,62.90
2022-11-13T10:41:41.845Z,63.71
2022-11-13T10:42:41.786Z,60.12
2022-11-13T10:43:41.786Z,60.63
2022-11-13T10:44:41.884Z,60.70
2022-11-13T10:45:41.751Z,59.89
2022-11-13T10:46:41.761Z,59.78
2022-11-13T10:48:03.075Z,60.06
2022-11-13T10:48:42.718Z,62.23
2022-11-13T10:49:41.769Z,62.43
2022-11-13T10:50:41.697Z,61.61
2022-11-13T10:51:41.686Z,61.49
2022-11-13T10:52:41.714Z,63.83
2022-11-13T10:53:41.668Z,63.73
2022-11-13T10:54:41.703Z,63.42
2022-11-13T10:55:41.654Z,63.35
2022-11-13T10:56:41.631Z,63.24
2022-11-13T10:57:42.506Z,61.59
2022-11-13T10:58:41.627Z,61.21
2022-11-13T10:59:41.608Z,60.30
2022-11-13T11:00:41.804Z,60.70
2022-11-13T11:01:41.691Z,62.74
2022-11-13T11:02:41.584Z,63.76
2022-11-13T11:03:41.573Z,63.73
2022-11-13T11:04:41.538Z,64.03
2022-11-13T11:05:41.545Z,62.92
2022-11-13T11:07:13.188Z,63.22
2022-11-13T11:07:42.622Z,63.53
2022-11-13T11:08:41.526Z,62.20
2022-11-13T11:09:41.486Z,61.18
2022-11-13T11:10:41.469Z,62.33
2022-11-13T11:11:41.458Z,63.86
2022-11-13T11:12:41.450Z,63.65
2022-11-13T11:13:41.466Z,65.16
2022-11-13T11:14:41.465Z,64.64
2022-11-13T11:15:41.418Z,64.44
2022-11-13T11:16:41.516Z,64.84
2022-11-13T11:17:42.238Z,66.07
2022-11-13T11:18:41.401Z,63.59
2022-11-13T11:19:41.414Z,64.03
2022-11-13T11:20:41.357Z,63.19
2022-11-13T11:21:41.345Z,63.80
2022-11-13T11:22:41.333Z,62.48
2022-11-13T11:23:41.502Z,63.01
2022-11-13T11:24:41.360Z,63.93
2022-11-13T11:25:41.828Z,63.12
2022-11-13T11:26:41.336Z,65.02
2022-11-13T11:27:41.358Z,64.31
2022-11-13T11:28:41.283Z,64.00
2022-11-13T11:29:41.284Z,62.78
2022-11-13T11:30:41.250Z,62.78
2022-11-13T11:31:41.235Z,63.90
2022-11-13T11:32:41.338Z,63.49
2022-11-13T11:33:41.230Z,65.53
2022-11-13T11:34:41.197Z,64.69
2022-11-13T11:35:41.187Z,64.89
2022-11-13T11:36:41.190Z,63.67
2022-11-13T11:37:41.164Z,64.15
2022-11-13T11:38:41.178Z,63.54
2022-11-13T11:39:41.160Z,63.13
2022-11-13T11:40:41.130Z,62.82
2022-11-13T11:41:41.146Z,61.02
2022-11-13T11:42:41.110Z,63.26
2022-11-13T11:43:41.096Z,61.60
2022-11-13T11:44:41.106Z,62.14
2022-11-13T11:45:41.069Z,61.53
2022-11-13T11:46:45.555Z,59.70
2022-11-13T11:47:42.048Z,60.64
2022-11-13T11:48:41.146Z,59.42
2022-11-13T11:49:41.031Z,61.56
2022-11-13T11:50:41.032Z,61.66
2022-11-13T11:51:41.026Z,63.49
2022-11-13T11:52:40.995Z,63.67
2022-11-13T11:53:41.002Z,62.35
2022-11-13T11:54:40.972Z,62.45
2022-11-13T11:55:40.960Z,61.40
2022-11-13T11:56:40.982Z,60.61
2022-11-13T11:57:40.960Z,60.52
2022-11-13T11:58:40.934Z,61.13
2022-11-13T11:59:40.914Z,59.80
2022-11-13T12:00:40.956Z,60.52
2022-11-13T12:01:40.906Z,60.52
2022-11-13T12:02:40.915Z,62.75
2022-11-13T12:03:40.866Z,62.85
2022-11-13T12:04:41.060Z,64.04
2022-11-13T12:05:40.982Z,63.13
2022-11-13T12:06:40.930Z,62.62
2022-11-13T12:07:40.842Z,63.54
2022-11-13T12:08:40.829Z,63.94
2022-11-13T12:09:40.799Z,61.60
2022-11-13T12:10:40.795Z,59.77
2022-11-13T12:11:40.799Z,61.10
2022-11-13T12:12:40.800Z,62.21
2022-11-13T12:13:40.774Z,59.16
2022-11-13T12:14:40.770Z,59.75
2022-11-13T12:15:40.746Z,60.59
2022-11-13T12:16:40.736Z,62.32
2022-11-13T12:17:40.708Z,59.37
2022-11-13T12:18:40.708Z,59.67
2022-11-13T12:19:40.704Z,57.43
2022-11-13T12:20:40.792Z,57.95
2022-11-13T12:21:40.685Z,60.08
2022-11-13T12:22:40.656Z,57.87
2022-11-13T12:23:40.647Z,58.89
2022-11-13T12:24:40.650Z,60.61
2022-11-13T12:25:40.622Z,59.70
2022-11-13T12:26:40.677Z,60.00
2022-11-13T12:27:40.597Z,61.13
2022-11-13T12:28:41.280Z,61.74
2022-11-13T12:29:40.575Z,61.56
2022-11-13T12:30:40.587Z,62.37
2022-11-13T12:31:40.557Z,61.15
2022-11-13T12:32:40.570Z,61.36
2022-11-13T12:33:40.541Z,62.27
2022-11-13T12:34:40.521Z,62.17
2022-11-13T12:35:40.533Z,62.68
2022-11-13T12:36:40.614Z,62.27
2022-11-13T12:37:40.522Z,62.37
2022-11-13T12:38:40.521Z,62.58
2022-11-13T12:39:40.471Z,61.69
2022-11-13T12:40:44.506Z,61.66
2022-11-13T12:41:40.462Z,61.38
2022-11-13T12:42:40.496Z,61.18
2022-11-13T12:43:40.422Z,61.69
2022-11-13T12:44:40.433Z,61.18
2022-11-13T12:45:40.422Z,61.69
2022-11-13T12:46:40.406Z,61.90
2022-11-13T12:47:40.403Z,61.69
2022-11-13T12:48:40.375Z,62.40
2022-11-13T12:49:40.349Z,63.42
2022-11-13T12:50:40.380Z,60.98
2022-11-13T12:51:40.371Z,61.08
2022-11-13T12:52:40.430Z,60.98
2022-11-13T12:53:40.340Z,62.20
2022-11-13T12:54:40.300Z,62.81
2022-11-13T12:55:40.283Z,63.01
2022-11-13T12:56:40.290Z,63.32
2022-11-13T12:57:40.273Z,64.64
2022-11-13T12:58:40.271Z,64.84
2022-11-13T12:59:40.279Z,65.28
2022-11-13T13:00:40.226Z,65.56
2022-11-13T13:01:40.270Z,64.44
2022-11-13T13:02:40.238Z,63.62
2022-11-13T13:03:40.227Z,64.87
2022-11-13T13:04:40.185Z,64.87
2022-11-13T13:05:40.172Z,64.26
2022-11-13T13:06:40.262Z,61.72
2022-11-13T13:07:40.162Z,61.93
2022-11-13T13:08:40.259Z,61.61
2022-11-13T13:09:40.130Z,61.11
2022-11-13T13:10:40.159Z,59.99
2022-11-13T13:11:40.100Z,59.99
2022-11-13T13:12:40.135Z,60.70
2022-11-13T13:13:40.104Z,60.93
2022-11-13T13:14:40.107Z,61.54
2022-11-13T13:15:40.056Z,62.36
2022-11-13T13:16:40.092Z,62.23
2022-11-13T13:17:40.095Z,61.34
2022-11-13T13:18:40.221Z,60.73
2022-11-13T13:19:40.021Z,61.04
2022-11-13T13:20:40.000Z,59.71
2022-11-13T13:21:40.113Z,59.71
2022-11-13T13:22:39.998Z,61.14
2022-11-13T13:23:39.989Z,60.63
2022-11-13T13:24:40.079Z,61.85
2022-11-13T13:25:40.070Z,60.63
2022-11-13T13:26:39.930Z,59.71
2022-11-13T13:27:39.929Z,59.61
2022-11-13T13:28:39.932Z,59.41
2022-11-13T13:29:39.932Z,60.25
2022-11-13T13:30:39.903Z,60.53
2022-11-13T13:31:39.889Z,59.51
2022-11-13T13:32:39.863Z,60.42
2022-11-13T13:33:39.852Z,60.14
2022-11-13T13:34:39.837Z,61.78
2022-11-13T13:35:39.869Z,61.78
2022-11-13T13:36:39.840Z,62.56
2022-11-13T13:37:39.802Z,62.39
2022-11-13T13:38:39.792Z,62.59
2022-11-13T13:39:48.931Z,63.71
2022-11-13T13:40:39.807Z,63.71
2022-11-13T13:41:39.766Z,64.43
2022-11-13T13:42:39.770Z,61.98
2022-11-13T13:43:39.736Z,62.11
2022-11-13T13:44:39.776Z,63.03
2022-11-13T13:45:39.757Z,63.54
2022-11-13T13:46:39.845Z,64.25
2022-11-13T13:47:39.688Z,63.03
2022-11-13T13:48:39.694Z,63.78
2022-11-13T13:49:39.669Z,65.61
2022-11-13T13:50:39.710Z,65.51
2022-11-13T13:51:39.672Z,65.31
2022-11-13T13:52:39.637Z,64.93
2022-11-13T13:53:39.644Z,64.90
2022-11-13T13:54:39.612Z,64.42
2022-11-13T13:55:39.732Z,65.34
2022-11-13T13:56:39.607Z,64.42
2022-11-13T13:57:39.576Z,65.06
2022-11-13T13:58:39.567Z,65.98
2022-11-13T13:59:39.581Z,64.58